メインページ
METAR-TAF:

METAR-TAF

空港 :

エルシリオ・ルス国際空港

フロリアノーポリス, サンタカタリーナ州, ブラジル

緯度: 27-40S, 経度: 048-33W, 海抜: 5m

現時点の気象観測

当レポートは25分前の21:00(UTC)に作成
の風 3kt
気温 17°C
湿度 82%
気圧 1027 hPa
視程10km以上
高度2500ftの雲はほとんどない
高度4700ftの雲は散在している

METAR: SBFL 162100Z 17003KT 9999 FEW025 SCT047 17/14 Q1027

時間: 18:25 (21:25 UTC)

予報

当レポートは6時間25分前の15:00(UTC)に作成
予報は16日の 18時(UTC)から 17日の 18時(UTC)まで有効
南/南東の風 6kt
視程10km以上
高度4500ftの雲はほとんどない
17日の 00時(UTC)から 17日の 02時(UTC)まで徐々に
南西の風 5kt
高度4000ftの千切れ雲あり
17日の 14時(UTC)から 17日の 16時(UTC)まで徐々に
東/南東の風 7kt
高度4000ftの雲は散在している

TAF: SBFL 161500Z 1618/1718 16006KT 9999 FEW045 TN14/1708Z TX22/1718Z BECMG 1700/1702 22005KT BKN040 BECMG 1714/1716 12007KT SCT040 RMK PDW

4,000以上の空港の気象観測と天気予報(METAR報とTAF報)

利用可能な観測所は地図上に黄色い丸と赤い丸で示す。

丸の上にカーソルを重ねると観測所名を参照できる。

次にクリックすると気象観測と天気予報を参照できる。

マップの切り替え:黒色「×」印の緑ボタンをクリックして拡大、「-」印の緑ボタンをクリックして縮小、緑色の三角印をクリックして隣りの地図に切り替え


METAR-TAF: